createdAt,value
2024-03-02T00:00:53.092Z,4.40
2024-03-02T00:03:42.081Z,3.90
2024-03-02T00:06:10.483Z,2.90
2024-03-02T00:08:39.090Z,4.00
2024-03-02T00:11:07.544Z,3.30
2024-03-02T00:13:37.162Z,4.90
2024-03-02T00:16:06.831Z,3.80
2024-03-02T00:18:36.272Z,4.50
2024-03-02T00:21:05.213Z,3.70
2024-03-02T00:23:33.703Z,4.40
2024-03-02T00:26:02.316Z,4.00
2024-03-02T00:28:35.424Z,5.00
2024-03-02T00:31:04.782Z,3.00
2024-03-02T00:33:35.246Z,3.40
2024-03-02T00:36:07.910Z,4.10
2024-03-02T00:38:41.249Z,5.20
2024-03-02T00:41:09.502Z,5.70
2024-03-02T00:44:07.526Z,5.00
2024-03-02T00:49:06.018Z,3.90
2024-03-02T00:51:35.215Z,4.20
2024-03-02T00:54:08.593Z,2.80
2024-03-02T00:56:37.065Z,4.20
2024-03-02T00:59:05.483Z,4.50
2024-03-02T01:01:34.091Z,3.80
2024-03-02T01:04:02.474Z,4.30
2024-03-02T01:06:31.669Z,4.70
2024-03-02T01:08:59.897Z,5.30
2024-03-02T01:11:28.871Z,3.50
2024-03-02T01:13:57.084Z,4.40
2024-03-02T01:16:25.305Z,2.80
2024-03-02T01:18:53.768Z,4.80
2024-03-02T01:21:22.042Z,4.50
2024-03-02T01:23:50.263Z,3.90
2024-03-02T01:26:18.377Z,4.50
2024-03-02T01:28:46.675Z,3.40
2024-03-02T01:31:14.937Z,5.00
2024-03-02T01:33:43.232Z,4.60
2024-03-02T01:36:11.395Z,4.40
2024-03-02T01:38:39.634Z,3.90
2024-03-02T01:41:07.669Z,4.00
2024-03-02T01:43:38.109Z,4.50
2024-03-02T01:46:07.568Z,4.30
2024-03-02T01:48:35.945Z,4.40
2024-03-02T01:51:05.269Z,3.40
2024-03-02T01:53:33.536Z,4.60
2024-03-02T01:56:02.703Z,3.30
2024-03-02T01:58:30.979Z,4.30
2024-03-02T02:00:59.341Z,4.70
2024-03-02T02:03:27.634Z,4.50
2024-03-02T02:05:55.834Z,4.00
2024-03-02T02:08:24.095Z,4.40
2024-03-02T02:10:52.546Z,3.90
2024-03-02T02:13:20.962Z,3.50
2024-03-02T02:15:49.195Z,4.00
2024-03-02T02:18:17.313Z,4.20
2024-03-02T02:20:45.407Z,3.70
2024-03-02T02:23:14.804Z,3.80
2024-03-02T02:25:43.360Z,4.50
2024-03-02T02:28:11.581Z,4.50
2024-03-02T02:30:39.753Z,5.90
2024-03-02T02:33:08.041Z,3.40
2024-03-02T02:35:36.388Z,3.20
2024-03-02T02:38:04.818Z,4.00
2024-03-02T02:40:33.016Z,3.70
2024-03-02T02:43:01.244Z,4.20
2024-03-02T02:45:29.566Z,4.20
2024-03-02T02:47:57.825Z,4.00
2024-03-02T02:50:25.892Z,3.90
2024-03-02T02:52:54.193Z,3.90
2024-03-02T02:55:22.273Z,3.40
2024-03-02T02:57:50.908Z,4.20
2024-03-02T03:00:21.325Z,4.60
2024-03-02T03:02:51.392Z,3.40
2024-03-02T03:05:20.295Z,3.10
2024-03-02T03:07:51.384Z,4.70
2024-03-02T03:10:21.774Z,3.80
2024-03-02T03:12:50.557Z,3.60
2024-03-02T03:15:18.776Z,5.40
2024-03-02T03:17:48.688Z,4.50
2024-03-02T03:20:17.274Z,4.00
2024-03-02T03:22:45.704Z,3.50
2024-03-02T03:25:13.875Z,3.20
2024-03-02T03:27:42.925Z,3.70
2024-03-02T03:30:12.228Z,4.10
2024-03-02T03:32:40.392Z,4.40
2024-03-02T03:35:09.016Z,4.20
2024-03-02T03:37:37.361Z,3.70
2024-03-02T03:40:11.561Z,3.80
2024-03-02T03:42:40.506Z,3.70
2024-03-02T03:45:09.555Z,4.50
2024-03-02T03:47:37.849Z,3.70
2024-03-02T03:50:08.520Z,3.20
2024-03-02T03:52:37.138Z,2.90
2024-03-02T03:55:07.017Z,3.20
2024-03-02T03:57:35.348Z,3.00
2024-03-02T04:00:04.646Z,3.70
2024-03-02T04:02:40.346Z,4.80
2024-03-02T04:05:12.159Z,5.00
2024-03-02T04:07:44.328Z,4.90
2024-03-02T04:10:14.045Z,4.40
2024-03-02T04:12:42.383Z,4.30
2024-03-02T04:15:10.619Z,3.40
2024-03-02T04:17:38.781Z,3.90
2024-03-02T04:20:07.747Z,4.30
2024-03-02T04:22:36.854Z,3.60
2024-03-02T04:25:08.727Z,3.50
2024-03-02T04:27:37.543Z,4.00
2024-03-02T04:30:06.688Z,5.40
2024-03-02T04:32:35.208Z,3.80
2024-03-02T04:35:03.455Z,5.00
2024-03-02T04:37:32.219Z,5.70
2024-03-02T04:40:00.511Z,6.20
2024-03-02T04:42:28.949Z,4.00
2024-03-02T04:44:57.079Z,5.30
2024-03-02T04:47:25.258Z,5.60
2024-03-02T04:49:53.420Z,4.40
2024-03-02T04:52:21.515Z,4.90
2024-03-02T04:55:08.364Z,3.90
2024-03-02T04:57:36.712Z,5.00
2024-03-02T05:00:08.851Z,5.50
2024-03-02T05:02:37.189Z,6.60
2024-03-02T05:05:05.563Z,4.50
2024-03-02T05:07:33.786Z,4.30
2024-03-02T05:10:02.072Z,3.80
2024-03-02T05:12:50.527Z,5.30
2024-03-02T05:15:18.946Z,4.20
2024-03-02T05:17:47.105Z,5.00
2024-03-02T05:20:15.297Z,4.80
2024-03-02T05:22:43.379Z,4.20
2024-03-02T05:25:12.148Z,4.30
2024-03-02T05:27:40.783Z,4.60
2024-03-02T05:30:09.937Z,5.50
2024-03-02T05:32:38.495Z,4.60
2024-03-02T05:35:07.364Z,4.20
2024-03-02T05:37:35.493Z,5.40
2024-03-02T05:40:04.240Z,8.10
2024-03-02T05:42:32.409Z,4.10
2024-03-02T05:45:00.776Z,5.30
2024-03-02T05:47:29.390Z,3.70
2024-03-02T05:49:57.800Z,4.40
2024-03-02T05:52:26.009Z,4.70
2024-03-02T05:54:54.463Z,3.50
2024-03-02T05:57:41.118Z,4.20
2024-03-02T06:00:09.747Z,3.60
2024-03-02T06:02:43.444Z,3.20
2024-03-02T06:05:11.642Z,2.70
2024-03-02T06:07:39.738Z,2.70
2024-03-02T06:10:13.756Z,3.70
2024-03-02T06:12:42.582Z,3.80
2024-03-02T06:15:12.148Z,3.50
2024-03-02T06:17:40.294Z,3.20
2024-03-02T06:20:09.839Z,2.80
2024-03-02T06:22:38.609Z,3.80
2024-03-02T06:25:07.396Z,2.60
2024-03-02T06:27:35.808Z,4.10
2024-03-02T06:30:05.383Z,3.10
2024-03-02T06:32:33.908Z,2.70
2024-03-02T06:35:02.478Z,3.60
2024-03-02T06:37:30.583Z,4.50
2024-03-02T06:39:59.006Z,2.20
2024-03-02T06:42:27.545Z,3.10
2024-03-02T06:44:55.697Z,3.50
2024-03-02T06:47:24.058Z,4.00
2024-03-02T06:49:52.627Z,3.00
2024-03-02T06:52:24.890Z,3.20
2024-03-02T06:54:53.522Z,3.00
2024-03-02T06:57:22.267Z,3.30
2024-03-02T06:59:52.645Z,2.80
2024-03-02T07:02:21.261Z,3.10
2024-03-02T07:04:49.894Z,2.50
2024-03-02T07:07:18.139Z,3.30
2024-03-02T07:09:46.831Z,3.90
2024-03-02T07:12:15.231Z,2.90
2024-03-02T07:15:02.072Z,2.90
2024-03-02T07:17:30.636Z,3.60
2024-03-02T07:19:59.193Z,2.70
2024-03-02T07:22:27.199Z,2.80
2024-03-02T07:27:23.554Z,2.90
2024-03-02T07:29:51.601Z,4.40
2024-03-02T07:32:19.992Z,3.60
2024-03-02T07:34:48.143Z,2.40
2024-03-02T07:37:16.368Z,3.80
2024-03-02T07:39:45.758Z,2.80
2024-03-02T07:42:13.781Z,3.60
2024-03-02T07:44:42.331Z,4.40
2024-03-02T07:47:10.465Z,4.20
2024-03-02T07:49:38.564Z,3.30
2024-03-02T07:52:06.827Z,4.70
2024-03-02T07:54:35.161Z,5.10
2024-03-02T07:57:03.444Z,3.70
2024-03-02T07:59:31.610Z,5.30
2024-03-02T08:01:59.826Z,4.40
2024-03-02T08:04:28.000Z,4.20
2024-03-02T08:06:56.521Z,5.50
2024-03-02T08:09:25.149Z,4.10
2024-03-02T08:11:53.321Z,4.00
2024-03-02T08:14:21.846Z,3.90
2024-03-02T08:16:49.921Z,2.80
2024-03-02T08:19:18.177Z,4.20
2024-03-02T08:21:46.588Z,3.80
2024-03-02T08:24:14.730Z,4.00
2024-03-02T08:26:43.191Z,3.40
2024-03-02T08:29:11.331Z,4.20
2024-03-02T08:31:42.153Z,4.10
2024-03-02T08:34:10.893Z,3.80
2024-03-02T08:36:39.506Z,4.60
2024-03-02T08:39:16.237Z,4.40
2024-03-02T08:41:47.543Z,4.30
2024-03-02T08:44:15.768Z,5.70
2024-03-02T08:46:43.892Z,5.70
2024-03-02T08:49:12.093Z,5.30
2024-03-02T08:51:40.340Z,6.20
2024-03-02T08:54:09.027Z,5.60
2024-03-02T08:56:37.299Z,4.00
2024-03-02T08:59:05.523Z,5.00
2024-03-02T09:01:34.058Z,4.80
2024-03-02T09:04:02.230Z,3.40
2024-03-02T09:06:30.455Z,3.30
2024-03-02T09:08:58.454Z,3.20
2024-03-02T09:11:26.841Z,4.00
2024-03-02T09:13:56.005Z,3.70
2024-03-02T09:16:24.290Z,3.80
2024-03-02T09:18:52.470Z,3.30
2024-03-02T09:21:20.602Z,3.00
2024-03-02T09:23:49.538Z,2.90
2024-03-02T09:26:17.927Z,2.90
2024-03-02T09:28:46.155Z,4.00
2024-03-02T09:31:14.283Z,4.30
2024-03-02T09:33:42.451Z,3.10
2024-03-02T09:36:23.393Z,3.30
2024-03-02T09:38:51.689Z,6.00
2024-03-02T09:41:20.783Z,3.50
2024-03-02T09:43:49.265Z,4.00
2024-03-02T09:46:17.495Z,3.00
2024-03-02T09:48:46.222Z,3.00
2024-03-02T09:51:14.310Z,3.50
2024-03-02T09:53:42.779Z,3.20
2024-03-02T09:56:10.770Z,3.30
2024-03-02T09:58:40.012Z,3.60
2024-03-02T10:01:08.412Z,4.50
2024-03-02T10:03:38.545Z,2.90
2024-03-02T10:06:39.882Z,3.20
2024-03-02T10:09:08.105Z,2.90
2024-03-02T10:11:38.463Z,3.20
2024-03-02T10:14:11.284Z,3.50
2024-03-02T10:16:43.210Z,3.20
2024-03-02T10:19:21.444Z,4.00
2024-03-02T10:21:53.156Z,3.50
2024-03-02T10:24:23.017Z,4.30
2024-03-02T10:26:51.681Z,3.90
2024-03-02T10:29:19.956Z,3.90
2024-03-02T10:31:48.032Z,3.00
2024-03-02T10:34:17.493Z,4.30
2024-03-02T10:36:46.829Z,3.60
2024-03-02T10:39:15.747Z,4.60
2024-03-02T10:41:43.806Z,3.30
2024-03-02T10:44:12.216Z,3.10
2024-03-02T10:46:40.408Z,2.80
2024-03-02T10:49:09.529Z,2.80
2024-03-02T10:51:39.040Z,2.70
2024-03-02T10:54:10.242Z,3.70
2024-03-02T10:56:40.756Z,2.60
2024-03-02T10:59:21.211Z,3.00
2024-03-02T11:01:49.733Z,3.50
2024-03-02T11:04:19.385Z,3.30
2024-03-02T11:06:51.058Z,3.50
2024-03-02T11:09:26.999Z,3.30
2024-03-02T11:12:19.638Z,3.40
2024-03-02T11:14:47.782Z,3.40
2024-03-02T11:17:18.695Z,3.30
2024-03-02T11:19:46.875Z,3.10
2024-03-02T11:22:14.913Z,2.70
2024-03-02T11:24:53.260Z,2.50
2024-03-02T11:27:46.316Z,4.00
2024-03-02T11:30:33.141Z,3.50
2024-03-02T11:33:12.695Z,2.70
2024-03-02T11:35:48.525Z,4.00
2024-03-02T11:38:16.620Z,3.10
2024-03-02T11:40:44.602Z,3.00
2024-03-02T11:43:12.769Z,3.30
2024-03-02T11:45:45.287Z,3.50
2024-03-02T11:48:17.268Z,4.40
2024-03-02T11:50:50.728Z,4.10
2024-03-02T11:53:19.482Z,3.80
2024-03-02T11:55:48.222Z,3.60
2024-03-02T11:58:22.015Z,3.80
2024-03-02T12:03:21.973Z,4.00
2024-03-02T12:05:56.539Z,3.30
2024-03-02T12:08:24.979Z,4.10
2024-03-02T12:11:00.212Z,3.80
2024-03-02T12:13:28.335Z,5.60
2024-03-02T12:15:59.712Z,3.70
2024-03-02T12:18:28.343Z,4.00
2024-03-02T12:20:59.057Z,3.20
2024-03-02T12:23:27.783Z,3.60
2024-03-02T12:25:56.129Z,3.70
2024-03-02T12:28:24.301Z,3.60
2024-03-02T12:30:52.962Z,3.10
2024-03-02T12:33:21.313Z,3.70
2024-03-02T12:35:50.645Z,3.10
2024-03-02T12:38:18.922Z,3.10
2024-03-02T12:40:49.543Z,2.80
2024-03-02T12:43:17.694Z,3.00
2024-03-02T12:45:46.261Z,3.60
2024-03-02T12:48:14.519Z,3.10
2024-03-02T12:50:42.904Z,2.90
2024-03-02T12:53:15.773Z,2.90
2024-03-02T12:55:45.507Z,3.60
2024-03-02T12:58:23.216Z,3.80
2024-03-02T13:00:51.590Z,4.30
2024-03-02T13:03:22.114Z,4.40
2024-03-02T13:05:51.216Z,4.70
2024-03-02T13:08:19.508Z,4.40
2024-03-02T13:10:47.710Z,3.80
2024-03-02T13:13:15.982Z,4.20
2024-03-02T13:15:44.471Z,4.60
2024-03-02T13:18:12.817Z,3.80
2024-03-02T13:20:41.178Z,4.90
2024-03-02T13:23:09.465Z,4.80
2024-03-02T13:25:37.491Z,7.20
2024-03-02T13:28:06.347Z,4.30
2024-03-02T13:30:35.218Z,4.30
2024-03-02T13:33:03.486Z,4.20
2024-03-02T13:35:31.654Z,4.10
2024-03-02T13:38:00.333Z,4.20
2024-03-02T13:40:29.018Z,3.40
2024-03-02T13:42:57.278Z,3.70
2024-03-02T13:45:25.483Z,3.80
2024-03-02T13:47:53.768Z,4.60
2024-03-02T13:50:22.021Z,3.70
2024-03-02T13:52:50.126Z,4.10
2024-03-02T13:55:18.773Z,3.80
2024-03-02T13:57:47.833Z,3.80
2024-03-02T14:00:16.880Z,4.00
2024-03-02T14:02:45.238Z,3.90
2024-03-02T14:05:14.994Z,4.20
2024-03-02T14:07:43.262Z,5.00
2024-03-02T14:10:11.461Z,4.30
2024-03-02T14:12:39.628Z,4.40
2024-03-02T14:15:08.411Z,6.30
2024-03-02T14:17:36.717Z,5.20
2024-03-02T14:20:06.204Z,4.50
2024-03-02T14:22:35.417Z,4.50
2024-03-02T14:25:03.768Z,5.80
2024-03-02T14:27:44.386Z,4.50
2024-03-02T14:30:20.210Z,5.00
2024-03-02T14:32:48.328Z,5.00
2024-03-02T14:35:16.512Z,4.60
2024-03-02T14:37:44.692Z,5.30
2024-03-02T14:40:13.944Z,6.10
2024-03-02T14:42:43.389Z,5.80
2024-03-02T14:45:11.706Z,4.80
2024-03-02T14:47:39.911Z,5.50
2024-03-02T14:50:08.467Z,5.80
2024-03-02T14:52:37.003Z,6.50
2024-03-02T14:55:08.780Z,6.00
2024-03-02T14:57:37.253Z,5.90
2024-03-02T15:00:08.863Z,5.30
2024-03-02T15:02:37.008Z,5.90
2024-03-02T15:05:07.072Z,6.50
2024-03-02T15:07:35.270Z,5.50
2024-03-02T15:10:05.534Z,6.70
2024-03-02T15:12:34.117Z,4.80
2024-03-02T15:15:02.524Z,5.70
2024-03-02T15:17:30.749Z,5.10
2024-03-02T15:19:58.933Z,5.90
2024-03-02T15:22:27.272Z,6.30
2024-03-02T15:24:55.307Z,5.80
2024-03-02T15:27:23.536Z,5.20
2024-03-02T15:29:53.371Z,6.00
2024-03-02T15:32:21.642Z,5.00
2024-03-02T15:34:49.866Z,6.10
2024-03-02T15:37:18.593Z,6.10
2024-03-02T15:39:46.735Z,5.80
2024-03-02T15:42:14.861Z,7.00
2024-03-02T15:44:45.246Z,6.10
2024-03-02T15:47:13.636Z,5.70
2024-03-02T15:49:41.902Z,5.20
2024-03-02T15:52:10.397Z,6.00
2024-03-02T15:54:38.704Z,6.00
2024-03-02T15:57:07.074Z,7.80
2024-03-02T15:59:35.198Z,5.70
2024-03-02T16:02:04.907Z,6.30
2024-03-02T16:04:33.103Z,6.10
2024-03-02T16:07:01.220Z,5.80
2024-03-02T16:09:29.411Z,6.70
2024-03-02T16:11:57.646Z,8.00
2024-03-02T16:14:26.039Z,6.40
2024-03-02T16:16:54.080Z,5.30
2024-03-02T16:19:29.750Z,6.30
2024-03-02T16:22:01.460Z,6.40
2024-03-02T16:24:29.669Z,6.90
2024-03-02T16:26:57.968Z,5.60
2024-03-02T16:29:26.085Z,6.50
2024-03-02T16:31:54.161Z,5.70
2024-03-02T16:34:22.341Z,33.30
2024-03-02T16:36:50.687Z,39.80
2024-03-02T16:39:18.899Z,61.20
2024-03-02T16:41:48.159Z,70.10
2024-03-02T16:44:16.596Z,64.30
2024-03-02T16:46:46.318Z,54.10
2024-03-02T16:49:14.627Z,43.60
2024-03-02T16:51:43.123Z,28.30
2024-03-02T16:54:11.469Z,39.50
2024-03-02T16:56:40.672Z,10.50
2024-03-02T16:59:09.053Z,8.00
2024-03-02T17:01:37.542Z,8.20
2024-03-02T17:04:06.893Z,8.70
2024-03-02T17:06:35.207Z,6.30
2024-03-02T17:09:03.741Z,7.50
2024-03-02T17:11:32.218Z,6.90
2024-03-02T17:14:01.013Z,7.20
2024-03-02T17:16:29.229Z,7.20
2024-03-02T17:18:58.064Z,6.90
2024-03-02T17:21:26.496Z,7.60
2024-03-02T17:23:54.663Z,8.30
2024-03-02T17:26:22.858Z,7.40
2024-03-02T17:28:51.032Z,8.00
2024-03-02T17:31:19.232Z,7.00
2024-03-02T17:33:47.400Z,5.70
2024-03-02T17:36:15.649Z,6.90
2024-03-02T17:38:43.843Z,7.50
2024-03-02T17:41:12.348Z,7.20
2024-03-02T17:43:40.891Z,7.80
2024-03-02T17:46:09.122Z,6.60
2024-03-02T17:48:37.478Z,6.50
2024-03-02T17:51:11.218Z,7.40
2024-03-02T17:53:39.636Z,6.40
2024-03-02T17:56:10.677Z,7.30
2024-03-02T17:58:39.266Z,8.20
2024-03-02T18:01:07.774Z,8.20
2024-03-02T18:03:35.928Z,8.70
2024-03-02T18:06:05.437Z,8.40
2024-03-02T18:08:35.353Z,8.20
2024-03-02T18:11:05.110Z,8.20
2024-03-02T18:13:35.055Z,8.20
2024-03-02T18:16:03.540Z,8.90
2024-03-02T18:18:33.089Z,9.50
2024-03-02T18:21:01.440Z,8.80
2024-03-02T18:23:30.358Z,8.80
2024-03-02T18:25:58.587Z,8.40
2024-03-02T18:28:27.024Z,13.50
2024-03-02T18:30:55.404Z,10.40
2024-03-02T18:33:23.811Z,9.90
2024-03-02T18:35:52.155Z,12.10
2024-03-02T18:38:20.586Z,9.80
2024-03-02T18:40:48.912Z,10.00
2024-03-02T18:43:17.061Z,10.70
2024-03-02T18:45:45.470Z,13.20
2024-03-02T18:48:13.807Z,13.00
2024-03-02T18:50:42.063Z,12.60
2024-03-02T18:53:12.488Z,14.60
2024-03-02T18:55:42.178Z,12.40
2024-03-02T18:58:10.467Z,10.40
2024-03-02T19:00:39.719Z,9.60
2024-03-02T19:03:10.854Z,9.60
2024-03-02T19:05:39.646Z,12.00
2024-03-02T19:08:09.201Z,8.90
2024-03-02T19:10:37.332Z,9.20
2024-03-02T19:13:07.102Z,8.30
2024-03-02T19:15:35.565Z,10.50
2024-03-02T19:18:04.511Z,8.30
2024-03-02T19:20:32.777Z,8.50
2024-03-02T19:23:01.456Z,9.10
2024-03-02T19:25:29.735Z,9.60
2024-03-02T19:27:58.238Z,8.70
2024-03-02T19:30:27.090Z,8.70
2024-03-02T19:32:55.583Z,7.50
2024-03-02T19:35:23.793Z,9.90
2024-03-02T19:37:53.057Z,8.00
2024-03-02T19:40:21.205Z,9.60
2024-03-02T19:42:49.329Z,8.80
2024-03-02T19:45:17.670Z,9.50
2024-03-02T19:47:45.813Z,11.10
2024-03-02T19:50:15.280Z,10.80
2024-03-02T19:52:43.408Z,10.70
2024-03-02T19:55:13.858Z,9.90
2024-03-02T19:57:45.822Z,9.70
2024-03-02T20:00:17.942Z,10.50
2024-03-02T20:02:46.143Z,11.40
2024-03-02T20:05:16.111Z,9.70
2024-03-02T20:07:44.304Z,13.40
2024-03-02T20:10:13.037Z,8.90
2024-03-02T20:12:41.305Z,9.70
2024-03-02T20:15:20.876Z,9.30
2024-03-02T20:17:49.180Z,11.10
2024-03-02T20:20:17.765Z,9.60
2024-03-02T20:22:47.020Z,9.90
2024-03-02T20:25:16.951Z,10.20
2024-03-02T20:27:46.428Z,9.10
2024-03-02T20:30:14.834Z,9.80
2024-03-02T20:32:43.435Z,9.90
2024-03-02T20:35:12.548Z,10.80
2024-03-02T20:37:41.196Z,13.10
2024-03-02T20:40:10.166Z,11.90
2024-03-02T20:42:39.035Z,10.80
2024-03-02T20:45:07.619Z,13.20
2024-03-02T20:47:35.656Z,11.00
2024-03-02T20:50:04.052Z,9.10
2024-03-02T20:52:32.165Z,9.10
2024-03-02T20:55:00.347Z,10.30
2024-03-02T20:57:30.210Z,10.70
2024-03-02T20:59:58.336Z,9.60
2024-03-02T21:02:26.776Z,10.90
2024-03-02T21:04:55.107Z,11.50
2024-03-02T21:07:23.844Z,11.30
2024-03-02T21:09:53.880Z,12.00
2024-03-02T21:12:22.213Z,15.00
2024-03-02T21:14:50.539Z,12.30
2024-03-02T21:17:18.693Z,13.70
2024-03-02T21:19:48.294Z,12.60
2024-03-02T21:22:16.896Z,11.80
2024-03-02T21:24:47.172Z,12.70
2024-03-02T21:27:18.493Z,11.70
2024-03-02T21:29:48.147Z,11.30
2024-03-02T21:32:16.224Z,11.40
2024-03-02T21:34:44.628Z,10.30
2024-03-02T21:37:12.814Z,11.40
2024-03-02T21:39:46.914Z,10.40
2024-03-02T21:42:15.884Z,10.70
2024-03-02T21:44:44.012Z,11.20
2024-03-02T21:47:12.368Z,10.30
2024-03-02T21:49:40.515Z,9.80
2024-03-02T21:52:08.811Z,10.80
2024-03-02T21:54:37.189Z,9.50
2024-03-02T21:57:10.330Z,10.70
2024-03-02T21:59:38.862Z,11.30
2024-03-02T22:02:06.970Z,10.90
2024-03-02T22:04:35.205Z,10.50
2024-03-02T22:07:03.846Z,12.10
2024-03-02T22:09:32.068Z,13.30
2024-03-02T22:12:02.137Z,11.50
2024-03-02T22:14:30.386Z,9.90
2024-03-02T22:16:58.654Z,11.00
2024-03-02T22:19:26.782Z,10.10
2024-03-02T22:21:54.894Z,11.30
2024-03-02T22:24:24.528Z,11.90
2024-03-02T22:26:53.517Z,12.00
2024-03-02T22:29:21.733Z,10.70
2024-03-02T22:31:49.958Z,11.00
2024-03-02T22:34:18.180Z,9.10
2024-03-02T22:36:46.227Z,10.20
2024-03-02T22:39:14.331Z,11.30
2024-03-02T22:41:42.426Z,11.10
2024-03-02T22:44:10.600Z,10.50
2024-03-02T22:46:38.764Z,10.20
2024-03-02T22:49:07.199Z,9.20
2024-03-02T22:51:35.594Z,7.90
2024-03-02T22:54:03.814Z,10.80
2024-03-02T22:56:32.092Z,10.60
2024-03-02T22:59:00.248Z,8.10
2024-03-02T23:01:28.497Z,9.10
2024-03-02T23:03:56.807Z,9.90
2024-03-02T23:06:24.990Z,9.70
2024-03-02T23:08:53.120Z,10.20
2024-03-02T23:11:21.256Z,9.50
2024-03-02T23:13:49.882Z,10.90
2024-03-02T23:16:18.018Z,11.40
2024-03-02T23:18:46.380Z,9.60
2024-03-02T23:21:15.172Z,10.60
2024-03-02T23:23:43.183Z,9.30
2024-03-02T23:26:11.348Z,8.80
2024-03-02T23:28:39.404Z,10.80
2024-03-02T23:31:07.703Z,10.20
2024-03-02T23:33:35.856Z,10.10
2024-03-02T23:36:04.363Z,8.10
2024-03-02T23:38:32.505Z,7.90
2024-03-02T23:41:11.212Z,10.00
2024-03-02T23:43:39.607Z,8.90
2024-03-02T23:46:08.930Z,10.10
2024-03-02T23:48:37.310Z,10.40
2024-03-02T23:51:05.630Z,10.10
2024-03-02T23:53:34.094Z,9.60
2024-03-02T23:56:12.469Z,13.60
2024-03-02T23:58:40.828Z,9.50
